Time;durP1;ratioP1;P1;durP2;ratioP2;P2;SDS_P1;SDS_P2;PMS_P1;PMS_P2;Temp;Humidity;BMP_temperature;BMP_pressure;BME280_temperature;BME280_humidity;BME280_pressure;Samples;Min_cycle;Max_cycle;Signal;HPM_P1;HPM_P2
2022/06/08 00:00:37;;;;;;;6.70;3.40;;;;;;;15.88;72.09;98630.95;105785;1275;22887;-82
2022/06/08 00:03:19;;;;;;;7.60;3.70;;;;;;;15.87;72.11;98626.60;105628;1277;27021;-80
2022/06/08 00:05:46;;;;;;;8.70;3.50;;;;;;;15.83;71.99;98622.14;105695;1276;22682;-85
2022/06/08 00:08:13;;;;;;;10.70;3.70;;;;;;;15.77;72.08;98621.88;105727;1277;24307;-82
2022/06/08 00:10:50;;;;;;;9.00;4.00;;;;;;;15.70;72.02;98625.84;105773;1277;22532;-85
2022/06/08 00:13:17;;;;;;;6.70;3.40;;;;;;;15.64;72.26;98622.48;105777;1276;22661;-77
2022/06/08 00:16:26;;;;;;;7.50;3.30;;;;;;;15.62;72.25;98627.16;105705;1277;22547;-85
2022/06/08 00:19:05;;;;;;;;;;;;;;;;;;;;;
2022/06/08 00:21:34;;;;;;;9.60;3.30;;;;;;;15.56;72.28;98621.65;105652;1280;25446;-81
2022/06/08 00:24:05;;;;;;;7.70;3.90;;;;;;;15.51;72.33;98621.09;105663;1279;25240;-77
2022/06/08 00:27:04;;;;;;;9.50;3.50;;;;;;;15.50;72.46;98621.32;105647;1279;25278;-79
2022/06/08 00:29:33;;;;;;;7.70;3.80;;;;;;;15.54;72.63;98614.67;105507;1278;22531;-82
2022/06/08 00:32:04;;;;;;;7.90;3.60;;;;;;;15.53;72.57;98611.31;105461;1279;22567;-83
2022/06/08 00:34:35;;;;;;;12.10;3.50;;;;;;;15.53;72.53;98609.05;105683;1279;24821;-84
2022/06/08 00:37:04;;;;;;;8.90;3.40;;;;;;;15.52;72.60;98610.07;105615;1279;25416;-78
2022/06/08 00:39:42;;;;;;;;;;;;;;;;;;;;;
2022/06/08 00:42:16;;;;;;;7.70;2.90;;;;;;;15.58;72.70;98604.70;105654;1280;24220;-81
2022/06/08 00:44:54;;;;;;;8.10;3.10;;;;;;;15.62;72.71;98596.45;106035;1278;22537;-79
2022/06/08 00:47:28;;;;;;;9.20;3.50;;;;;;;15.64;72.52;98597.05;105735;1279;22526;-82
2022/06/08 00:50:05;;;;;;;6.70;3.20;;;;;;;15.56;72.32;98601.00;105770;1273;24209;-84
2022/06/08 00:52:35;;;;;;;9.60;3.30;;;;;;;15.49;72.55;98600.50;105930;1274;25576;-77
2022/06/08 00:55:07;;;;;;;6.70;2.90;;;;;;;15.45;72.63;98604.08;106096;1273;24402;-84
2022/06/08 00:57:36;;;;;;;9.00;3.10;;;;;;;15.41;72.56;98607.67;106317;1273;24411;-83
2022/06/08 01:00:10;;;;;;;6.50;2.90;;;;;;;15.37;72.69;98607.66;106298;1273;22585;-79
2022/06/08 01:02:38;;;;;;;6.40;2.50;;;;;;;15.40;72.80;98607.06;106053;1274;25332;-77
2022/06/08 01:05:44;;;;;;;8.90;2.50;;;;;;;15.40;72.63;98610.80;105958;1274;22609;-84
2022/06/08 01:08:27;;;;;;;8.30;2.80;;;;;;;15.36;72.68;98607.70;106235;1273;22528;-83
2022/06/08 01:10:59;;;;;;;6.50;2.60;;;;;;;15.36;72.84;98606.19;106072;1273;22553;-77
2022/06/08 01:13:29;;;;;;;8.00;3.40;;;;;;;15.34;72.79;98598.85;106047;1274;22556;-80
2022/06/08 01:15:56;;;;;;;5.80;2.80;;;;;;;15.36;72.93;98598.31;106397;1273;25228;-79
2022/06/08 01:18:23;;;;;;;6.00;2.60;;;;;;;15.37;72.62;98595.36;105883;1273;25291;-77
2022/06/08 01:20:55;;;;;;;8.70;2.60;;;;;;;15.38;72.88;98595.75;105923;1273;24268;-83
2022/06/08 01:23:24;;;;;;;5.90;2.80;;;;;;;15.40;72.74;98592.14;105978;1274;22680;-76
2022/06/08 01:26:09;;;;;;;5.80;2.70;;;;;;;15.41;72.74;98592.48;106050;1274;22553;-82
2022/06/08 01:28:46;;;;;;;6.50;2.60;;;;;;;15.41;72.83;98591.02;106064;1273;23051;-81
2022/06/08 01:31:29;;;;;;;6.20;2.50;;;;;;;15.39;72.79;98597.23;106309;1273;22708;-77
2022/06/08 01:34:34;;;;;;;7.60;3.30;;;;;;;15.37;72.67;98594.08;105959;1276;22523;-78
2022/06/08 01:37:38;;;;;;;7.70;2.60;;;;;;;15.26;72.46;98590.03;105944;1273;22768;-82
2022/06/08 01:40:46;;;;;;;6.50;2.30;;;;;;;15.15;72.52;98589.36;105871;1274;25247;-77
2022/06/08 01:43:53;;;;;;;7.00;2.50;;;;;;;15.05;72.61;98588.48;105908;1273;25490;-76
2022/06/08 01:46:46;;;;;;;7.00;2.60;;;;;;;14.98;72.57;98584.52;106251;1274;22541;-80
2022/06/08 01:49:49;;;;;;;6.40;2.80;;;;;;;14.91;72.58;98583.64;105999;1273;22858;-83
2022/06/08 01:52:45;;;;;;;7.00;2.40;;;;;;;14.79;72.51;98588.31;106128;1273;22553;-81
2022/06/08 01:55:15;;;;;;;4.40;2.20;;;;;;;14.62;72.54;98588.92;106289;1275;22625;-84
2022/06/08 01:57:43;;;;;;;4.50;2.00;;;;;;;14.54;72.59;98587.90;106078;1273;23379;-83
2022/06/08 02:00:35;;;;;;;5.60;2.10;;;;;;;14.50;72.72;98584.85;106144;1274;26492;-82
2022/06/08 02:03:16;;;;;;;5.60;1.90;;;;;;;14.47;72.80;98588.37;105978;1275;22541;-81
2022/06/08 02:06:07;;;;;;;5.30;2.10;;;;;;;14.45;72.78;98582.67;106276;1273;22566;-84
2022/06/08 02:08:46;;;;;;;5.90;2.20;;;;;;;14.40;72.68;98581.86;106146;1273;22535;-77
2022/06/08 02:11:30;;;;;;;8.00;2.50;;;;;;;14.35;72.74;98586.93;105914;1273;22693;-78
2022/06/08 02:14:08;;;;;;;8.00;2.30;;;;;;;14.32;72.82;98587.27;105925;1274;25292;-83
2022/06/08 02:16:49;;;;;;;8.20;2.60;;;;;;;14.27;72.68;98583.25;106124;1273;23170;-82
2022/06/08 02:22:56;;;;;;;8.50;2.40;;;;;;;13.95;72.50;98575.35;106281;1273;25206;-76
2022/06/08 02:25:46;;;;;;;6.80;2.20;;;;;;;13.80;72.68;98577.69;105966;1274;22708;-78
2022/06/08 02:28:30;;;;;;;5.50;2.30;;;;;;;13.67;72.76;98576.36;105908;1275;22702;-83
2022/06/08 02:31:19;;;;;;;;;;;;;;;;;;;;;
2022/06/08 02:36:54;;;;;;;5.40;2.30;;;;;;;13.48;73.15;98576.86;106631;1273;24358;-83
2022/06/08 02:39:37;;;;;;;5.20;2.20;;;;;;;13.44;73.12;98573.91;106200;1273;25302;-80
2022/06/08 02:42:44;;;;;;;7.20;2.50;;;;;;;13.40;73.17;98574.91;106304;1274;24414;-80
2022/06/08 02:45:55;;;;;;;;;;;;;;;;;;;;;
2022/06/08 02:51:32;;;;;;;5.30;2.00;;;;;;;13.48;73.34;98572.17;105917;1274;23131;-77
2022/06/08 02:54:25;;;;;;;6.20;2.20;;;;;;;13.54;73.54;98575.94;105923;1276;22561;-80
2022/06/08 02:57:24;;;;;;;;;;;;;;;;;;;;;
2022/06/08 03:00:21;;;;;;;6.40;2.40;;;;;;;13.66;73.44;98580.90;106321;1271;25352;-77
2022/06/08 03:03:01;;;;;;;6.50;3.00;;;;;;;13.68;73.33;98584.88;106399;1271;22556;-81
2022/06/08 03:10:08;;;;;;;5.80;2.50;;;;;;;13.71;73.40;98587.29;106052;1278;22677;-80
2022/06/08 03:12:39;;;;;;;6.70;2.40;;;;;;;13.75;73.35;98587.77;105821;1280;22552;-77
2022/06/08 03:15:09;;;;;;;9.40;3.00;;;;;;;13.81;73.44;98591.72;105656;1280;22722;-84
2022/06/08 03:17:50;;;;;;;;;;;;;;;;;;;;;
2022/06/08 03:20:24;;;;;;;7.00;3.10;;;;;;;13.89;73.43;98589.55;105967;1278;25282;-79
2022/06/08 03:22:54;;;;;;;8.80;3.40;;;;;;;13.93;73.34;98591.86;105510;1278;24868;-82
2022/06/08 03:34:49;;;;;;;8.70;3.40;;;;;;;14.19;73.38;98598.84;106047;1271;23319;-78
2022/06/08 03:37:16;;;;;;;9.60;3.60;;;;;;;14.26;73.41;98597.34;106258;1274;25289;-78
2022/06/08 03:39:46;;;;;;;8.50;3.40;;;;;;;14.32;73.61;98602.80;106293;1271;22534;-79
2022/06/08 03:42:13;;;;;;;9.40;3.40;;;;;;;14.40;73.55;98605.71;106026;1274;24275;-83
2022/06/08 03:44:41;;;;;;;7.80;3.80;;;;;;;14.46;73.58;98605.11;106430;1271;22551;-80
2022/06/08 03:47:12;;;;;;;7.10;3.10;;;;;;;14.51;73.51;98599.67;106298;1271;25630;-77
2022/06/08 03:49:39;;;;;;;7.60;3.20;;;;;;;14.55;73.43;98603.55;106571;1271;22653;-77
2022/06/08 03:52:17;;;;;;;8.10;3.10;;;;;;;14.60;73.43;98600.61;106223;1271;22530;-83
2022/06/08 03:54:49;;;;;;;9.20;3.20;;;;;;;14.68;73.48;98602.84;106138;1271;25471;-77
2022/06/08 03:57:19;;;;;;;9.10;3.60;;;;;;;14.74;73.40;98600.06;106329;1271;22529;-84
2022/06/08 03:59:48;;;;;;;8.40;2.80;;;;;;;14.80;73.50;98594.30;106034;1271;22557;-81
2022/06/08 04:02:17;;;;;;;9.40;3.20;;;;;;;14.90;73.46;98595.33;106428;1271;22595;-78
2022/06/08 04:05:37;;;;;;;6.90;3.40;;;;;;;15.00;73.45;98592.62;106173;1278;24425;-81
2022/06/08 04:08:09;;;;;;;5.80;2.60;;;;;;;15.07;73.23;98595.46;105735;1278;22529;-82
2022/06/08 04:10:44;;;;;;;7.90;2.10;;;;;;;15.06;72.77;98596.42;105646;1279;24228;-83
2022/06/08 04:13:12;;;;;;;6.50;2.50;;;;;;;15.08;72.90;98591.25;105653;1280;24271;-84
2022/06/08 04:15:42;;;;;;;7.10;2.50;;;;;;;15.14;72.90;98591.20;105704;1277;22848;-84
2022/06/08 04:18:18;;;;;;;7.20;2.40;;;;;;;15.20;73.03;98591.11;105795;1277;22690;-85
2022/06/08 04:20:50;;;;;;;8.20;2.40;;;;;;;15.28;73.17;98593.04;105862;1280;22623;-77
2022/06/08 04:23:18;;;;;;;6.40;2.50;;;;;;;15.35;73.24;98593.05;105722;1279;22728;-78
2022/06/08 04:25:46;;;;;;;7.40;2.50;;;;;;;15.45;73.25;98594.04;105607;1280;25480;-77
2022/06/08 04:28:16;;;;;;;7.10;2.60;;;;;;;15.58;73.22;98590.91;105706;1277;25255;-77
2022/06/08 04:30:47;;;;;;;5.20;2.30;;;;;;;15.77;73.12;98591.73;105619;1281;22538;-81
2022/06/08 04:33:15;;;;;;;6.50;2.70;;;;;;;15.93;73.02;98588.32;105637;1280;25264;-78
2022/06/08 04:35:45;;;;;;;8.10;2.80;;;;;;;16.13;73.11;98586.28;105892;1278;22849;-77
2022/06/08 04:38:13;;;;;;;6.70;2.70;;;;;;;16.34;72.99;98585.02;105549;1281;22547;-84
2022/06/08 04:41:00;;;;;;;7.20;2.50;;;;;;;16.51;72.74;98588.86;105570;1281;23541;-83
2022/06/08 04:43:29;;;;;;;8.70;2.80;;;;;;;16.66;72.66;98583.80;105991;1274;22556;-79
2022/06/08 04:45:58;;;;;;;7.80;2.70;;;;;;;16.80;72.56;98583.96;106196;1274;24254;-84
2022/06/08 04:48:32;;;;;;;7.80;3.10;;;;;;;16.96;72.51;98580.52;106232;1274;22718;-83
2022/06/08 04:51:10;;;;;;;9.20;2.60;;;;;;;17.13;72.43;98581.90;106573;1271;22539;-82
2022/06/08 04:53:47;;;;;;;7.70;2.90;;;;;;;17.23;72.20;98582.88;106147;1274;24339;-84
2022/06/08 04:56:15;;;;;;;7.30;2.60;;;;;;;17.28;72.11;98581.56;105939;1274;25410;-77
2022/06/08 04:58:43;;;;;;;8.40;2.70;;;;;;;17.34;72.10;98581.32;106045;1274;22655;-80
2022/06/08 05:01:13;;;;;;;9.60;3.00;;;;;;;17.41;72.12;98574.08;106074;1274;25307;-78
2022/06/08 05:03:42;;;;;;;8.70;3.10;;;;;;;17.51;72.14;98570.59;105835;1274;22643;-83
2022/06/08 05:06:10;;;;;;;7.90;2.70;;;;;;;17.66;72.11;98569.40;106670;1271;25223;-81
2022/06/08 05:08:37;;;;;;;10.00;3.30;;;;;;;17.81;72.11;98570.78;106223;1274;22609;-82
2022/06/08 05:11:10;;;;;;;9.20;2.60;;;;;;;17.96;71.91;98566.30;106240;1274;24412;-81
2022/06/08 05:13:38;;;;;;;7.80;2.80;;;;;;;18.07;71.75;98565.34;106113;1274;22534;-78
2022/06/08 05:16:09;;;;;;;8.60;2.70;;;;;;;18.22;71.71;98565.88;106148;1274;24612;-81
2022/06/08 05:18:39;;;;;;;9.20;2.70;;;;;;;18.41;71.70;98569.89;106389;1274;22572;-78
2022/06/08 05:21:11;;;;;;;12.70;2.90;;;;;;;18.56;71.70;98567.80;106148;1275;22608;-85
2022/06/08 05:23:40;;;;;;;15.70;3.10;;;;;;;18.74;71.60;98568.39;106370;1272;24186;-82
2022/06/08 05:26:13;;;;;;;12.40;3.30;;;;;;;18.98;71.47;98564.91;106207;1272;22657;-80
2022/06/08 05:28:43;;;;;;;6.10;2.80;;;;;;;19.23;71.52;98559.61;106222;1271;22559;-83
2022/06/08 05:31:11;;;;;;;9.50;2.60;;;;;;;19.52;71.32;98553.59;106566;1274;26587;-83
2022/06/08 05:33:40;;;;;;;12.50;2.60;;;;;;;19.76;71.08;98551.81;106223;1272;25512;-83
2022/06/08 05:36:16;;;;;;;9.20;2.40;;;;;;;19.91;70.99;98547.27;106369;1271;22677;-85
2022/06/08 05:39:08;;;;;;;6.30;1.80;;;;;;;19.95;70.86;98552.80;106238;1274;22548;-81
2022/06/08 05:41:41;;;;;;;10.60;2.10;;;;;;;20.06;70.97;98556.40;105927;1274;24428;-82
2022/06/08 05:44:15;;;;;;;13.60;2.90;;;;;;;20.28;70.96;98558.73;106264;1274;22547;-80
2022/06/08 05:46:43;;;;;;;9.70;2.30;;;;;;;20.48;70.61;98561.13;106238;1274;22532;-84
2022/06/08 05:49:15;;;;;;;9.00;2.50;;;;;;;20.62;70.35;98562.66;106247;1277;22526;-86
2022/06/08 05:51:46;;;;;;;10.80;2.80;;;;;;;20.78;70.25;98564.34;106126;1274;22534;-85
2022/06/08 05:54:17;;;;;;;11.90;3.20;;;;;;;20.94;70.05;98558.67;106026;1274;24316;-80
2022/06/08 05:56:44;;;;;;;8.80;2.60;;;;;;;21.07;69.86;98560.45;106072;1271;22534;-80
2022/06/08 05:59:13;;;;;;;16.30;2.60;;;;;;;21.15;69.90;98559.90;106052;1274;25394;-79
2022/06/08 06:01:43;;;;;;;7.90;2.30;;;;;;;21.26;69.89;98556.87;105912;1272;24202;-81
2022/06/08 06:04:12;;;;;;;13.60;2.90;;;;;;;21.35;69.79;98557.66;106207;1276;22538;-80
2022/06/08 06:06:45;;;;;;;10.00;2.60;;;;;;;21.46;69.97;98554.31;106013;1275;25541;-80
2022/06/08 06:09:24;;;;;;;9.60;2.30;;;;;;;21.57;69.86;98550.34;106644;1274;22684;-79
2022/06/08 06:11:55;;;;;;;10.10;2.00;;;;;;;21.78;69.86;98550.59;106003;1275;22532;-78
2022/06/08 06:14:30;;;;;;;10.40;2.20;;;;;;;21.95;69.49;98549.54;105981;1275;23895;-80
2022/06/08 06:16:57;;;;;;;8.80;2.20;;;;;;;22.07;69.49;98540.20;106801;1274;22807;-79
2022/06/08 06:19:25;;;;;;;11.30;2.20;;;;;;;22.23;69.63;98538.16;106067;1271;24098;-81
2022/06/08 06:22:44;;;;;;;10.30;2.60;;;;;;;22.35;69.18;98542.95;106167;1274;22697;-82
2022/06/08 06:25:19;;;;;;;11.10;2.60;;;;;;;22.43;69.36;98539.95;106042;1274;24235;-85
2022/06/08 06:28:28;;;;;;;10.00;2.40;;;;;;;22.50;69.05;98541.80;106473;1271;24847;-80
2022/06/08 06:31:21;;;;;;;11.50;2.10;;;;;;;22.49;69.03;98540.36;106763;1274;22732;-82
2022/06/08 06:34:16;;;;;;;10.00;2.30;;;;;;;22.51;69.14;98541.80;106044;1274;25390;-81
2022/06/08 06:36:44;;;;;;;9.70;2.10;;;;;;;22.57;69.10;98539.74;106324;1274;24050;-78
2022/06/08 06:39:11;;;;;;;10.20;2.60;;;;;;;22.58;68.92;98543.14;105932;1274;22579;-84
2022/06/08 06:41:44;;;;;;;9.70;2.10;;;;;;;22.58;68.73;98546.15;106315;1274;22686;-85
2022/06/08 06:44:18;;;;;;;13.20;2.50;;;;;;;22.61;69.08;98543.88;106188;1274;22551;-81
2022/06/08 06:47:06;;;;;;;10.30;2.50;;;;;;;22.67;69.01;98546.22;106122;1274;24262;-79
2022/06/08 06:49:45;;;;;;;11.50;2.80;;;;;;;22.69;68.83;98547.48;106721;1270;22762;-85
2022/06/08 06:52:18;;;;;;;8.60;2.40;;;;;;;22.71;68.68;98553.02;106265;1271;24344;-85
2022/06/08 06:54:47;;;;;;;12.10;2.90;;;;;;;22.72;68.57;98553.95;106668;1271;22528;-82
2022/06/08 06:57:14;;;;;;;12.40;2.30;;;;;;;22.73;68.43;98551.83;106913;1271;26550;-79
2022/06/08 06:59:42;;;;;;;8.00;1.80;;;;;;;22.73;68.42;98552.13;105979;1272;22586;-86
2022/06/08 07:02:19;;;;;;;6.90;1.90;;;;;;;22.72;68.07;98546.33;106342;1274;22691;-82
2022/06/08 07:04:50;;;;;;;7.30;1.80;;;;;;;22.68;67.85;98546.80;106204;1274;22491;-79
2022/06/08 07:07:40;;;;;;;7.70;2.50;;;;;;;22.66;67.79;98545.30;106028;1274;22897;-83
2022/06/08 07:10:21;;;;;;;5.00;1.40;;;;;;;22.75;68.16;98544.97;106310;1271;22567;-85
2022/06/08 07:12:49;;;;;;;4.90;1.60;;;;;;;22.83;68.13;98544.05;106264;1274;22572;-79
2022/06/08 07:15:20;;;;;;;4.90;1.70;;;;;;;22.92;67.94;98536.45;106055;1274;24361;-80
2022/06/08 07:17:49;;;;;;;4.60;2.00;;;;;;;23.02;68.02;98538.44;106204;1274;22629;-78
2022/06/08 07:20:49;;;;;;;4.70;1.70;;;;;;;23.10;67.74;98535.90;106042;1271;22523;-79
2022/06/08 07:23:18;;;;;;;3.40;1.40;;;;;;;23.23;67.44;98540.14;106379;1271;22591;-79
2022/06/08 07:25:45;;;;;;;5.70;1.60;;;;;;;23.29;66.84;98540.16;105964;1275;22643;-83
2022/06/08 07:28:15;;;;;;;6.10;1.70;;;;;;;23.40;67.02;98544.05;106273;1274;24202;-80
2022/06/08 07:30:52;;;;;;;6.20;2.00;;;;;;;23.59;67.14;98541.98;106066;1274;22557;-86
2022/06/08 07:33:25;;;;;;;6.10;1.70;;;;;;;23.81;67.06;98543.55;106296;1274;22588;-84
2022/06/08 07:36:03;;;;;;;4.80;1.80;;;;;;;24.02;66.82;98547.23;106333;1271;25480;-85
2022/06/08 07:38:31;;;;;;;4.00;1.50;;;;;;;24.09;66.55;98541.56;106215;1274;22533;-83
2022/06/08 07:40:58;;;;;;;3.70;1.40;;;;;;;24.24;66.59;98542.65;106298;1271;22661;-81
2022/06/08 07:43:25;;;;;;;9.00;2.00;;;;;;;24.34;66.68;98541.83;106300;1271;22507;-81
2022/06/08 07:45:58;;;;;;;4.60;1.40;;;;;;;24.43;66.46;98542.41;106249;1272;23293;-80
2022/06/08 07:51:24;;;;;;;6.10;1.60;;;;;;;24.58;65.95;98535.91;106298;1271;22741;-77
2022/06/08 07:54:00;;;;;;;3.70;1.50;;;;;;;24.52;64.90;98533.20;106125;1271;22618;-85
2022/06/08 07:56:34;;;;;;;5.20;1.80;;;;;;;24.18;65.33;98535.42;106307;1271;22723;-81
2022/06/08 07:59:09;;;;;;;3.70;1.70;;;;;;;24.16;65.75;98534.55;106314;1271;22556;-83
2022/06/08 08:01:42;;;;;;;4.10;1.20;;;;;;;24.22;65.44;98532.14;106399;1271;25331;-78
2022/06/08 08:04:30;;;;;;;5.50;1.30;;;;;;;24.21;65.73;98532.53;106023;1274;25405;-80
2022/06/08 08:07:00;;;;;;;5.10;1.80;;;;;;;24.22;65.91;98528.09;106191;1274;24990;-79
2022/06/08 08:09:31;;;;;;;4.80;1.20;;;;;;;24.25;64.92;98527.46;106177;1271;26471;-82
2022/06/08 08:12:00;;;;;;;7.90;1.40;;;;;;;24.22;64.86;98525.39;106244;1272;24377;-82
2022/06/08 08:14:27;;;;;;;6.60;1.40;;;;;;;24.38;65.47;98526.49;106222;1274;24212;-78
2022/06/08 08:16:55;;;;;;;4.40;1.30;;;;;;;24.60;65.27;98527.73;106275;1271;22521;-83
2022/06/08 08:19:25;;;;;;;6.10;1.80;;;;;;;24.80;64.99;98529.39;106222;1271;24269;-80
2022/06/08 08:21:56;;;;;;;5.40;1.50;;;;;;;24.99;64.64;98532.36;106278;1271;24250;-83
2022/06/08 08:24:23;;;;;;;3.80;1.60;;;;;;;25.14;64.49;98529.51;106179;1271;22559;-83
2022/06/08 08:26:51;;;;;;;4.90;1.10;;;;;;;25.28;64.27;98534.38;106036;1271;24306;-80
2022/06/08 08:29:19;;;;;;;4.20;1.30;;;;;;;25.37;64.00;98532.81;106268;1271;22573;-82
2022/06/08 08:31:47;;;;;;;4.10;1.20;;;;;;;25.43;64.04;98530.17;106274;1271;25530;-80
2022/06/08 08:34:14;;;;;;;3.90;1.20;;;;;;;25.50;64.02;98527.98;105982;1274;22547;-83
2022/06/08 08:36:41;;;;;;;5.00;1.50;;;;;;;25.60;63.80;98522.96;106239;1274;25567;-76
2022/06/08 08:39:08;;;;;;;3.80;1.60;;;;;;;25.60;63.50;98524.73;106069;1271;22528;-81
2022/06/08 08:44:40;;;;;;;5.90;1.50;;;;;;;25.63;63.40;98519.88;106317;1271;22620;-78
2022/06/08 08:47:27;;;;;;;4.30;1.40;;;;;;;25.60;63.11;98517.29;106340;1271;22551;-80
2022/06/08 08:49:54;;;;;;;3.30;1.40;;;;;;;25.62;63.15;98516.68;106223;1274;23965;-83
2022/06/08 08:52:29;;;;;;;4.70;1.60;;;;;;;25.72;63.13;98521.81;106315;1271;25298;-79
2022/06/08 08:55:04;;;;;;;3.40;1.60;;;;;;;25.78;63.07;98525.20;106295;1274;26739;-78
2022/06/08 08:57:42;;;;;;;5.10;1.70;;;;;;;25.80;62.71;98524.34;106325;1271;22626;-78
2022/06/08 09:00:24;;;;;;;2.40;1.20;;;;;;;25.77;62.52;98521.12;106294;1271;25328;-78
2022/06/08 09:05:41;;;;;;;4.70;1.70;;;;;;;25.74;62.41;98516.17;106290;1271;22656;-80
2022/06/08 09:08:10;;;;;;;5.60;1.40;;;;;;;25.88;62.57;98516.45;106339;1271;22558;-81
2022/06/08 09:10:37;;;;;;;4.10;1.40;;;;;;;26.04;62.17;98517.59;106433;1271;24356;-80
2022/06/08 09:13:05;;;;;;;5.30;1.20;;;;;;;26.11;62.09;98516.86;106286;1271;22546;-85
2022/06/08 09:15:44;;;;;;;3.90;1.40;;;;;;;26.19;61.72;98518.35;106260;1274;25435;-81
2022/06/08 09:18:34;;;;;;;3.60;1.20;;;;;;;26.24;61.62;98516.08;105980;1274;22532;-85
2022/06/08 09:21:36;;;;;;;6.00;1.50;;;;;;;26.30;61.28;98511.98;106263;1272;24289;-84
2022/06/08 09:24:16;;;;;;;4.30;1.60;;;;;;;26.32;61.47;98507.61;106259;1271;23896;-83
2022/06/08 09:26:44;;;;;;;3.50;1.40;;;;;;;26.32;61.19;98506.39;105971;1272;26459;-81
2022/06/08 09:29:11;;;;;;;4.10;1.60;;;;;;;26.33;61.13;98505.42;106318;1271;22573;-83
2022/06/08 09:31:39;;;;;;;4.10;1.50;;;;;;;26.33;60.94;98500.58;106264;1274;24010;-81
2022/06/08 09:34:33;;;;;;;3.90;1.30;;;;;;;26.27;60.68;98499.46;106271;1271;22553;-83
2022/06/08 09:37:24;;;;;;;3.30;1.10;;;;;;;26.19;60.52;98503.41;106297;1273;25591;-81
2022/06/08 09:39:56;;;;;;;3.70;1.30;;;;;;;26.07;60.32;98497.95;106293;1274;24651;-80
2022/06/08 09:42:52;;;;;;;3.70;1.00;;;;;;;25.97;60.28;98502.96;106278;1271;24214;-78
2022/06/08 09:45:35;;;;;;;4.50;1.00;;;;;;;25.90;59.90;98505.24;106209;1272;25340;-77
2022/06/08 09:51:29;;;;;;;4.80;1.50;;;;;;;25.55;59.79;98500.27;106289;1271;23947;-78
2022/06/08 09:54:31;;;;;;;3.50;1.30;;;;;;;25.61;59.97;98498.98;106329;1271;24148;-78
2022/06/08 09:57:29;;;;;;;3.80;1.60;;;;;;;25.75;59.98;98493.36;106316;1271;22697;-77
2022/06/08 10:00:17;;;;;;;6.40;1.50;;;;;;;25.95;59.74;98487.69;106283;1274;22509;-84
2022/06/08 10:03:15;;;;;;;5.30;1.40;;;;;;;26.17;59.50;98485.95;106291;1271;22601;-78
2022/06/08 10:06:07;;;;;;;;;;;;;;;;;;;;;
2022/06/08 10:08:53;;;;;;;4.80;1.20;;;;;;;26.55;58.84;98479.73;106051;1274;22554;-76
2022/06/08 10:14:49;;;;;;;3.20;1.00;;;;;;;27.07;58.75;98474.64;105727;1278;24566;-84
2022/06/08 10:17:26;;;;;;;3.30;0.90;;;;;;;27.28;58.72;98474.20;105716;1280;25562;-77
2022/06/08 10:19:59;;;;;;;3.70;1.30;;;;;;;27.44;57.83;98465.27;105733;1280;25442;-79
2022/06/08 10:22:34;;;;;;;2.80;1.00;;;;;;;27.44;57.43;98466.62;105741;1278;22834;-80
2022/06/08 10:25:15;;;;;;;3.00;1.10;;;;;;;27.03;56.84;98465.27;105670;1280;22548;-83
2022/06/08 10:27:54;;;;;;;4.60;1.10;;;;;;;26.71;57.18;98468.91;105773;1277;22544;-82
2022/06/08 10:30:35;;;;;;;2.60;0.70;;;;;;;26.71;57.40;98465.57;105619;1280;23946;-82
2022/06/08 10:33:11;;;;;;;2.10;0.60;;;;;;;26.80;57.26;98463.82;105617;1280;24289;-81
2022/06/08 10:35:59;;;;;;;7.20;2.40;;;;;;;26.79;56.32;98464.94;105607;1281;25356;-80
2022/06/08 10:38:34;;;;;;;3.90;1.30;;;;;;;26.87;56.98;98466.39;105746;1279;24301;-79
2022/06/08 10:44:58;;;;;;;3.20;1.00;;;;;;;27.22;56.32;98462.14;105603;1279;25219;-79
2022/06/08 10:47:30;;;;;;;5.00;1.00;;;;;;;27.09;56.31;98463.44;105581;1281;24293;-82
2022/06/08 10:50:00;;;;;;;4.30;0.80;;;;;;;27.03;56.36;98469.26;105992;1274;22541;-77
2022/06/08 10:52:32;;;;;;;1.90;0.80;;;;;;;26.99;56.24;98461.02;106086;1274;22648;-81
2022/06/08 10:55:16;;;;;;;5.40;1.00;;;;;;;26.90;55.98;98459.86;106273;1273;24167;-79
2022/06/08 10:58:06;;;;;;;4.10;1.10;;;;;;;26.76;55.94;98462.02;106361;1271;22597;-77
2022/06/08 11:00:58;;;;;;;2.80;0.90;;;;;;;26.68;55.99;98461.60;106659;1272;22581;-77
2022/06/08 11:03:36;;;;;;;4.90;1.00;;;;;;;26.57;55.68;98466.92;106355;1269;22532;-82
2022/06/08 11:06:09;;;;;;;3.50;0.90;;;;;;;26.51;55.52;98466.80;105659;1274;476043;-81
2022/06/08 11:08:51;;;;;;;3.70;1.10;;;;;;;26.48;55.44;98467.61;106309;1271;22554;-82
2022/06/08 11:11:42;;;;;;;3.90;0.80;;;;;;;26.44;55.19;98465.92;106128;1271;24418;-78
2022/06/08 11:14:48;;;;;;;5.50;1.60;;;;;;;26.47;55.34;98469.69;105979;1274;25528;-77
2022/06/08 11:17:35;;;;;;;3.60;1.50;;;;;;;26.41;54.88;98462.20;105813;1279;22656;-77
2022/06/08 11:20:15;;;;;;;4.90;1.20;;;;;;;26.37;55.01;98457.08;106091;1279;22561;-79
2022/06/08 11:23:45;;;;;;;5.50;1.40;;;;;;;26.41;55.12;98462.98;105636;1280;22552;-78
2022/06/08 11:29:38;;;;;;;2.50;0.90;;;;;;;26.54;54.82;98458.52;105325;1279;24229;-84
2022/06/08 11:32:24;;;;;;;3.00;1.20;;;;;;;26.57;54.64;98450.77;105662;1280;25465;-78
2022/06/08 11:35:03;;;;;;;3.30;1.10;;;;;;;26.57;54.21;98450.23;105614;1280;22644;-79
2022/06/08 11:37:42;;;;;;;4.50;1.10;;;;;;;26.50;54.02;98443.52;105711;1280;23426;-79
2022/06/08 11:40:29;;;;;;;6.10;1.30;;;;;;;26.44;53.95;98447.23;105772;1280;24398;-79
2022/06/08 11:43:18;;;;;;;6.60;1.60;;;;;;;26.41;53.94;98452.86;105888;1280;24412;-85
2022/06/08 11:45:54;;;;;;;6.20;1.40;;;;;;;26.27;53.75;98449.39;105757;1278;25112;-80
2022/06/08 11:48:24;;;;;;;4.30;1.20;;;;;;;26.26;54.38;98450.79;105764;1278;22666;-78
2022/06/08 11:51:00;;;;;;;5.60;1.20;;;;;;;26.36;54.06;98448.57;105775;1278;25487;-78
2022/06/08 11:53:36;;;;;;;4.70;1.10;;;;;;;26.45;54.04;98447.51;106238;1271;23615;-79
2022/06/08 11:56:16;;;;;;;7.70;2.20;;;;;;;26.58;53.90;98449.48;106221;1271;25560;-81
2022/06/08 11:59:07;;;;;;;3.70;1.30;;;;;;;26.72;53.62;98442.22;106165;1274;24265;-79
2022/06/08 12:01:43;;;;;;;3.80;1.00;;;;;;;26.65;52.87;98442.30;106028;1274;22548;-83
2022/06/08 12:04:20;;;;;;;3.20;1.10;;;;;;;26.53;53.10;98436.95;106074;1274;23946;-75
2022/06/08 12:06:48;;;;;;;4.10;1.10;;;;;;;26.62;53.16;98432.69;106250;1273;24240;-79
2022/06/08 12:09:22;;;;;;;4.90;1.40;;;;;;;26.62;53.12;98430.04;106052;1271;23214;-78
2022/06/08 12:12:34;;;;;;;5.20;1.20;;;;;;;26.60;52.83;98421.14;106306;1271;23026;-81
2022/06/08 12:15:45;;;;;;;3.70;1.20;;;;;;;26.44;52.81;98417.19;105681;1277;24323;-77
2022/06/08 12:18:38;;;;;;;4.80;1.20;;;;;;;26.36;53.11;98420.10;104876;1286;22962;-79
2022/06/08 12:21:27;;;;;;;5.50;2.10;;;;;;;26.56;52.89;98420.59;104981;1285;22929;-77
2022/06/08 12:24:12;;;;;;;5.10;1.20;;;;;;;26.70;52.73;98408.70;104874;1285;22596;-79
2022/06/08 12:27:26;;;;;;;4.70;1.30;;;;;;;26.72;52.30;98409.86;105353;1285;22697;-79
2022/06/08 12:30:21;;;;;;;3.00;1.20;;;;;;;26.64;52.25;98409.79;104785;1286;26432;-78
2022/06/08 12:32:56;;;;;;;4.70;1.20;;;;;;;26.56;52.44;98410.70;105049;1285;25309;-78
2022/06/08 12:35:38;;;;;;;3.20;1.00;;;;;;;26.60;52.60;98412.73;105060;1285;22824;-79
2022/06/08 12:38:11;;;;;;;3.70;1.30;;;;;;;26.63;52.46;98407.73;105065;1285;22646;-83
2022/06/08 12:40:39;;;;;;;4.60;1.10;;;;;;;26.67;52.70;98405.37;105141;1285;22576;-84
2022/06/08 12:43:10;;;;;;;4.20;1.10;;;;;;;26.75;52.15;98404.02;104878;1285;23016;-78
2022/06/08 12:46:04;;;;;;;6.90;1.20;;;;;;;26.71;52.11;98403.25;104911;1285;25555;-85
2022/06/08 12:48:39;;;;;;;3.70;1.00;;;;;;;26.60;51.08;98397.84;105197;1280;22935;-78
2022/06/08 12:51:34;;;;;;;7.30;2.00;;;;;;;26.46;51.66;98394.59;105829;1278;25258;-74
2022/06/08 12:54:09;;;;;;;4.10;1.30;;;;;;;26.51;51.90;98394.77;106194;1273;22562;-80
2022/06/08 12:56:37;;;;;;;5.30;1.30;;;;;;;26.60;51.59;98392.48;106381;1271;25336;-76
2022/06/08 12:59:03;;;;;;;3.90;1.30;;;;;;;26.65;51.46;98386.85;106228;1274;26697;-82
2022/06/08 13:01:30;;;;;;;4.20;1.30;;;;;;;26.40;50.36;98385.58;106245;1271;22522;-82
2022/06/08 13:03:58;;;;;;;6.60;1.60;;;;;;;26.24;51.45;98381.08;106120;1274;22528;-83
2022/06/08 13:06:27;;;;;;;7.40;1.30;;;;;;;26.31;51.38;98378.01;106288;1271;22616;-84
2022/06/08 13:08:58;;;;;;;4.00;1.10;;;;;;;26.39;51.35;98376.30;105910;1273;24365;-79